Widnes, United Kingdom
Current Conditions -  °F | °C
As of 7:50 PM on Thursday 23 Oct 2014 (Local Time) from EGGP Reporting Station
Broken Clouds Broken Clouds  
Wind Chill: 59°   Ceiling: 2800
Heat Index: 59°   Visibility: 6mi
Dew Point: 52°   Wind: 9mph
Humidity: 77%   Direction: 230°SW
Pressure: 29.88"   Gusts: NA
Location:  53.36°N, 2.73°W
Report Text: EGGP 231850Z 23008KT 9999 FEW022 BKN028 15/11 Q1012
Loading
Personal Weather Stations






























Interactive Weather Map New forecast layout! Learn more

10-Day Weather Forecast

Advertisements
Track Severe Weather on mobile